createdAt,value
2022-10-22T00:01:06.023Z,2.83
2022-10-22T00:03:34.292Z,2.67
2022-10-22T00:06:02.240Z,3.22
2022-10-22T00:08:30.583Z,2.70
2022-10-22T00:10:58.919Z,2.50
2022-10-22T00:13:26.899Z,2.33
2022-10-22T00:15:54.826Z,2.45
2022-10-22T00:18:24.331Z,2.50
2022-10-22T00:20:52.357Z,2.75
2022-10-22T00:23:20.381Z,2.40
2022-10-22T00:25:48.434Z,2.80
2022-10-22T00:28:16.469Z,2.53
2022-10-22T00:30:44.391Z,2.38
2022-10-22T00:33:12.369Z,2.38
2022-10-22T00:35:41.674Z,2.38
2022-10-22T00:38:09.698Z,2.40
2022-10-22T00:40:37.614Z,2.67
2022-10-22T00:43:05.793Z,2.58
2022-10-22T00:45:33.840Z,2.90
2022-10-22T00:48:05.790Z,2.33
2022-10-22T00:50:36.999Z,2.60
2022-10-22T00:53:11.566Z,2.53
2022-10-22T00:55:41.343Z,2.40
2022-10-22T00:58:09.505Z,2.28
2022-10-22T01:00:37.508Z,2.20
2022-10-22T01:03:06.041Z,2.17
2022-10-22T01:05:40.954Z,2.30
2022-10-22T01:08:17.199Z,2.08
2022-10-22T01:10:55.599Z,2.15
2022-10-22T01:13:34.460Z,2.00
2022-10-22T01:16:11.757Z,2.03
2022-10-22T01:18:49.087Z,2.08
2022-10-22T01:21:27.926Z,2.08
2022-10-22T01:24:35.609Z,1.85
2022-10-22T01:27:25.457Z,1.80
2022-10-22T01:29:58.852Z,2.00
2022-10-22T01:32:28.964Z,1.90
2022-10-22T01:35:02.002Z,1.90
2022-10-22T01:37:33.261Z,1.92
2022-10-22T01:40:05.282Z,1.90
2022-10-22T01:42:33.268Z,1.95
2022-10-22T01:45:02.642Z,2.03
2022-10-22T01:47:44.190Z,1.67
2022-10-22T01:50:40.646Z,1.50
2022-10-22T01:53:19.705Z,1.65
2022-10-22T01:56:02.646Z,2.10
2022-10-22T01:58:40.373Z,1.50
2022-10-22T02:01:18.812Z,1.35
2022-10-22T02:03:52.502Z,1.67
2022-10-22T02:06:23.550Z,2.10
2022-10-22T02:08:54.108Z,1.55
2022-10-22T02:11:22.318Z,1.70
2022-10-22T02:13:54.806Z,1.33
2022-10-22T02:16:29.556Z,1.35
2022-10-22T02:19:01.421Z,1.40
2022-10-22T02:21:29.997Z,1.50
2022-10-22T02:24:01.088Z,1.75
2022-10-22T02:26:33.532Z,1.58
2022-10-22T02:29:10.754Z,1.67
2022-10-22T02:31:46.030Z,1.23
2022-10-22T02:34:17.006Z,1.33
2022-10-22T02:36:48.223Z,1.50
2022-10-22T02:39:20.317Z,1.35
2022-10-22T02:41:48.866Z,1.40
2022-10-22T02:44:24.224Z,1.45
2022-10-22T02:46:53.712Z,1.38
2022-10-22T02:49:21.663Z,1.70
2022-10-22T02:51:49.703Z,1.48
2022-10-22T02:54:17.610Z,1.40
2022-10-22T02:56:46.044Z,1.90
2022-10-22T02:59:16.730Z,1.38
2022-10-22T03:01:45.081Z,1.55
2022-10-22T03:04:17.860Z,1.52
2022-10-22T03:06:48.859Z,1.50
2022-10-22T03:09:20.160Z,1.70
2022-10-22T03:11:51.056Z,1.85
2022-10-22T03:14:19.098Z,1.65
2022-10-22T03:16:47.780Z,1.67
2022-10-22T03:19:17.175Z,1.58
2022-10-22T03:21:49.603Z,1.67
2022-10-22T03:24:22.831Z,2.08
2022-10-22T03:26:52.056Z,1.70
2022-10-22T03:29:22.633Z,1.60
2022-10-22T03:31:50.985Z,2.03
2022-10-22T03:34:20.340Z,1.77
2022-10-22T03:36:49.005Z,2.00
2022-10-22T03:39:19.947Z,1.98
2022-10-22T03:41:48.489Z,1.80
2022-10-22T03:44:18.005Z,1.95
2022-10-22T03:46:47.651Z,2.10
2022-10-22T03:49:15.649Z,2.28
2022-10-22T03:51:45.000Z,2.20
2022-10-22T03:54:16.735Z,2.45
2022-10-22T03:57:13.682Z,2.00
2022-10-22T03:59:43.472Z,2.10
2022-10-22T04:02:12.072Z,1.98
2022-10-22T04:04:40.632Z,1.80
2022-10-22T04:07:10.143Z,1.80
2022-10-22T04:09:38.369Z,1.60
2022-10-22T04:12:08.055Z,2.03
2022-10-22T04:14:36.019Z,1.48
2022-10-22T04:17:04.053Z,1.65
2022-10-22T04:19:32.033Z,1.90
2022-10-22T04:22:00.098Z,1.80
2022-10-22T04:24:31.056Z,1.38
2022-10-22T04:26:59.193Z,1.80
2022-10-22T04:29:27.725Z,1.60
2022-10-22T04:31:55.729Z,1.67
2022-10-22T04:34:23.674Z,1.70
2022-10-22T04:36:51.653Z,1.80
2022-10-22T04:39:19.608Z,1.58
2022-10-22T04:41:48.991Z,1.73
2022-10-22T04:44:18.555Z,1.65
2022-10-22T04:46:46.991Z,1.50
2022-10-22T04:49:15.071Z,1.40
2022-10-22T04:51:43.866Z,1.50
2022-10-22T04:54:11.917Z,1.43
2022-10-22T04:56:39.929Z,1.70
2022-10-22T04:59:12.395Z,1.50
2022-10-22T05:01:43.192Z,1.75
2022-10-22T05:04:13.321Z,2.35
2022-10-22T05:09:12.776Z,1.73
2022-10-22T05:11:45.350Z,1.30
2022-10-22T05:14:15.113Z,1.35
2022-10-22T05:16:43.143Z,1.20
2022-10-22T05:19:17.434Z,1.65
2022-10-22T05:21:45.694Z,1.40
2022-10-22T05:24:14.362Z,1.70
2022-10-22T05:26:42.705Z,1.35
2022-10-22T05:29:10.667Z,1.50
2022-10-22T05:31:41.191Z,1.75
2022-10-22T05:34:09.112Z,1.20
2022-10-22T05:36:37.422Z,1.45
2022-10-22T05:39:05.502Z,1.60
2022-10-22T05:41:35.696Z,1.42
2022-10-22T05:44:04.252Z,1.55
2022-10-22T05:46:35.699Z,1.33
2022-10-22T05:49:06.843Z,1.27
2022-10-22T05:51:36.814Z,2.17
2022-10-22T05:56:33.821Z,1.27
2022-10-22T06:01:35.335Z,1.40
2022-10-22T06:04:07.412Z,1.30
2022-10-22T06:06:37.426Z,1.17
2022-10-22T06:09:08.278Z,1.27
2022-10-22T06:11:36.239Z,1.42
2022-10-22T06:14:04.836Z,1.67
2022-10-22T06:16:33.303Z,1.40
2022-10-22T06:19:02.090Z,1.30
2022-10-22T06:21:32.569Z,1.30
2022-10-22T06:24:01.938Z,1.38
2022-10-22T06:26:31.094Z,1.30
2022-10-22T06:29:00.379Z,1.15
2022-10-22T06:31:29.553Z,1.38
2022-10-22T06:33:58.512Z,1.90
2022-10-22T06:36:26.515Z,1.45
2022-10-22T06:38:56.922Z,1.92
2022-10-22T06:41:28.553Z,1.67
2022-10-22T06:44:00.032Z,2.08
2022-10-22T06:46:28.269Z,1.50
2022-10-22T06:48:58.183Z,2.17
2022-10-22T06:51:27.464Z,1.83
2022-10-22T06:53:57.896Z,1.73
2022-10-22T06:56:28.735Z,1.88
2022-10-22T06:58:58.962Z,2.00
2022-10-22T07:01:28.554Z,1.85
2022-10-22T07:03:56.845Z,2.20
2022-10-22T07:06:26.088Z,1.90
2022-10-22T07:08:56.474Z,1.80
2022-10-22T07:11:27.117Z,2.17
2022-10-22T07:13:56.495Z,2.33
2022-10-22T07:16:28.152Z,2.20
2022-10-22T07:19:00.641Z,2.58
2022-10-22T07:21:28.885Z,2.35
2022-10-22T07:23:59.962Z,1.75
2022-10-22T07:26:31.230Z,2.47
2022-10-22T07:29:00.586Z,2.13
2022-10-22T07:31:29.295Z,2.13
2022-10-22T07:33:57.714Z,2.30
2022-10-22T07:36:25.807Z,2.42
2022-10-22T07:38:59.233Z,2.25
2022-10-22T07:41:28.414Z,2.78
2022-10-22T07:43:57.050Z,2.60
2022-10-22T07:46:26.764Z,2.35
2022-10-22T07:48:54.849Z,2.17
2022-10-22T07:51:23.512Z,2.20
2022-10-22T07:53:51.540Z,2.58
2022-10-22T07:56:21.662Z,2.50
2022-10-22T07:58:49.645Z,2.13
2022-10-22T08:01:17.741Z,2.42
2022-10-22T08:03:45.801Z,2.78
2022-10-22T08:06:15.124Z,2.30
2022-10-22T08:08:43.557Z,2.03
2022-10-22T08:11:12.148Z,2.60
2022-10-22T08:13:45.117Z,2.63
2022-10-22T08:16:13.964Z,2.25
2022-10-22T08:18:41.925Z,2.33
2022-10-22T08:21:09.985Z,2.25
2022-10-22T08:23:37.946Z,2.70
2022-10-22T08:26:06.314Z,2.40
2022-10-22T08:28:37.247Z,2.30
2022-10-22T08:31:08.717Z,2.40
2022-10-22T08:33:41.070Z,2.80
2022-10-22T08:36:09.839Z,2.33
2022-10-22T08:38:37.841Z,2.20
2022-10-22T08:41:12.830Z,2.45
2022-10-22T08:44:15.901Z,3.00
2022-10-22T08:47:11.447Z,2.75
2022-10-22T08:49:42.875Z,2.50
2022-10-22T08:52:16.809Z,2.80
2022-10-22T08:54:52.909Z,2.65
2022-10-22T08:57:32.193Z,2.60
2022-10-22T09:00:06.369Z,2.60
2022-10-22T09:02:44.435Z,2.92
2022-10-22T09:05:30.840Z,2.38
2022-10-22T09:07:58.964Z,2.50
2022-10-22T09:10:30.507Z,2.60
2022-10-22T09:12:58.558Z,2.67
2022-10-22T09:15:27.033Z,3.03
2022-10-22T09:18:07.100Z,2.95
2022-10-22T09:20:43.494Z,3.03
2022-10-22T09:23:25.811Z,2.85
2022-10-22T09:25:53.809Z,3.33
2022-10-22T09:28:22.063Z,3.22
2022-10-22T09:33:26.916Z,3.30
2022-10-22T09:35:57.426Z,3.00
2022-10-22T09:38:28.783Z,3.15
2022-10-22T09:40:58.855Z,3.35
2022-10-22T09:43:27.014Z,3.08
2022-10-22T09:45:58.198Z,3.47
2022-10-22T09:48:34.601Z,3.53
2022-10-22T09:51:07.790Z,3.28
2022-10-22T09:53:40.560Z,3.25
2022-10-22T09:56:11.188Z,3.30
2022-10-22T09:58:43.944Z,3.42
2022-10-22T10:01:19.077Z,3.17
2022-10-22T10:03:49.591Z,3.40
2022-10-22T10:06:20.058Z,3.65
2022-10-22T10:08:48.589Z,3.42
2022-10-22T10:11:29.210Z,2.90
2022-10-22T10:14:11.145Z,2.33
2022-10-22T10:16:50.035Z,2.30
2022-10-22T10:19:36.172Z,2.40
2022-10-22T10:22:15.284Z,2.00
2022-10-22T10:25:00.280Z,1.80
2022-10-22T10:27:36.281Z,1.73
2022-10-22T10:30:07.724Z,2.20
2022-10-22T10:32:52.777Z,1.98
2022-10-22T10:35:26.690Z,1.92
2022-10-22T10:38:10.418Z,1.75
2022-10-22T10:40:44.948Z,1.42
2022-10-22T10:43:18.312Z,1.73
2022-10-22T10:45:58.491Z,1.42
2022-10-22T10:48:36.904Z,1.25
2022-10-22T10:51:17.266Z,1.45
2022-10-22T10:53:59.815Z,1.80
2022-10-22T10:56:39.290Z,1.42
2022-10-22T10:59:19.565Z,1.40
2022-10-22T11:02:00.689Z,1.58
2022-10-22T11:04:49.008Z,1.42
2022-10-22T11:07:34.279Z,1.73
2022-10-22T11:10:12.961Z,2.00
2022-10-22T11:12:45.293Z,1.83
2022-10-22T11:15:24.136Z,1.45
2022-10-22T11:17:54.100Z,1.60
2022-10-22T11:20:26.733Z,1.40
2022-10-22T11:23:18.832Z,1.85
2022-10-22T11:25:49.386Z,1.52
2022-10-22T11:28:23.517Z,1.73
2022-10-22T11:31:04.287Z,1.65
2022-10-22T11:33:40.151Z,1.80
2022-10-22T11:36:09.988Z,2.25
2022-10-22T11:41:10.740Z,2.25
2022-10-22T11:43:58.951Z,1.95
2022-10-22T11:46:40.975Z,2.55
2022-10-22T11:49:20.953Z,2.40
2022-10-22T11:51:49.202Z,3.25
2022-10-22T11:54:43.374Z,2.40
2022-10-22T11:57:20.850Z,2.92
2022-10-22T11:59:53.631Z,2.97
2022-10-22T12:02:41.369Z,2.30
2022-10-22T12:05:43.471Z,2.10
2022-10-22T12:08:23.089Z,1.95
2022-10-22T12:11:03.959Z,1.90
2022-10-22T12:13:34.308Z,1.65
2022-10-22T12:16:05.565Z,1.92
2022-10-22T12:18:42.963Z,1.75
2022-10-22T12:21:14.252Z,1.60
2022-10-22T12:23:42.782Z,2.05
2022-10-22T12:26:25.514Z,2.08
2022-10-22T12:28:58.469Z,1.77
2022-10-22T12:31:26.865Z,1.90
2022-10-22T12:33:58.925Z,1.80
2022-10-22T12:36:27.880Z,1.70
2022-10-22T12:38:55.966Z,1.80
2022-10-22T12:41:33.823Z,1.87
2022-10-22T12:44:06.112Z,2.00
2022-10-22T12:46:35.787Z,2.45
2022-10-22T12:49:09.246Z,2.10
2022-10-22T12:51:37.213Z,2.50
2022-10-22T12:54:09.392Z,2.33
2022-10-22T12:56:39.318Z,2.47
2022-10-22T12:59:14.101Z,2.20
2022-10-22T13:01:43.958Z,2.22
2022-10-22T13:06:50.175Z,2.13
2022-10-22T13:11:59.218Z,1.95
2022-10-22T13:14:32.573Z,1.50
2022-10-22T13:17:10.682Z,2.50
2022-10-22T13:19:51.096Z,1.50
2022-10-22T13:22:32.059Z,2.05
2022-10-22T13:25:05.398Z,2.00
2022-10-22T13:27:44.002Z,1.50
2022-10-22T13:30:20.727Z,1.60
2022-10-22T13:32:53.760Z,1.42
2022-10-22T13:35:25.341Z,1.83
2022-10-22T13:37:53.646Z,1.20
2022-10-22T13:40:22.075Z,1.70
2022-10-22T13:42:51.526Z,1.60
2022-10-22T13:45:19.750Z,1.17
2022-10-22T13:47:51.771Z,1.08
2022-10-22T13:50:21.800Z,1.00
2022-10-22T13:55:22.214Z,1.65
2022-10-22T13:57:51.823Z,1.30
2022-10-22T14:00:21.730Z,1.42
2022-10-22T14:02:54.578Z,1.13
2022-10-22T14:05:22.788Z,1.20
2022-10-22T14:07:50.904Z,1.10
2022-10-22T14:10:21.392Z,1.17
2022-10-22T14:12:53.505Z,1.35
2022-10-22T14:15:24.997Z,1.00
2022-10-22T14:17:56.397Z,0.90
2022-10-22T14:20:26.273Z,1.00
2022-10-22T14:25:24.214Z,1.17
2022-10-22T14:27:54.074Z,1.30
2022-10-22T14:32:52.896Z,1.35
2022-10-22T14:35:22.537Z,1.00
2022-10-22T14:37:50.980Z,1.10
2022-10-22T14:40:21.079Z,1.42
2022-10-22T14:42:50.077Z,2.85
2022-10-22T14:45:22.200Z,1.10
2022-10-22T14:47:50.580Z,1.17
2022-10-22T14:50:20.385Z,1.00
2022-10-22T14:55:18.533Z,1.00
2022-10-22T14:57:47.125Z,1.23
2022-10-22T15:00:17.011Z,1.35
2022-10-22T15:02:46.655Z,1.15
2022-10-22T15:05:15.406Z,1.40
2022-10-22T15:07:44.863Z,1.27
2022-10-22T15:10:12.966Z,1.43
2022-10-22T15:12:40.913Z,1.20
2022-10-22T15:15:09.585Z,1.02
2022-10-22T15:17:37.600Z,1.10
2022-10-22T15:20:08.593Z,1.13
2022-10-22T15:22:36.560Z,1.67
2022-10-22T15:25:06.734Z,0.90
2022-10-22T15:27:34.936Z,1.27
2022-10-22T15:32:32.397Z,1.05
2022-10-22T15:35:00.886Z,0.90
2022-10-22T15:37:30.885Z,1.20
2022-10-22T15:40:00.666Z,1.50
2022-10-22T15:42:28.714Z,1.13
2022-10-22T15:44:59.726Z,1.25
2022-10-22T15:47:29.765Z,1.20
2022-10-22T15:49:58.057Z,0.77
2022-10-22T15:52:26.099Z,1.27
2022-10-22T15:54:55.817Z,0.95
2022-10-22T15:57:23.983Z,0.95
2022-10-22T15:59:53.126Z,1.15
2022-10-22T16:02:22.161Z,0.93
2022-10-22T16:04:50.133Z,0.90
2022-10-22T16:07:21.083Z,0.82
2022-10-22T16:09:52.376Z,1.45
2022-10-22T16:12:21.833Z,1.38
2022-10-22T16:14:51.363Z,2.22
2022-10-22T16:17:19.935Z,1.30
2022-10-22T16:19:49.326Z,1.50
2022-10-22T16:22:17.236Z,1.10
2022-10-22T16:24:45.238Z,1.20
2022-10-22T16:27:13.202Z,1.67
2022-10-22T16:29:43.616Z,1.13
2022-10-22T16:32:13.244Z,1.30
2022-10-22T16:34:42.012Z,1.30
2022-10-22T16:37:10.631Z,1.25
2022-10-22T16:39:39.042Z,1.00
2022-10-22T16:42:07.293Z,1.20
2022-10-22T16:44:35.326Z,1.20
2022-10-22T16:47:04.627Z,1.30
2022-10-22T16:49:32.675Z,1.30
2022-10-22T16:52:00.762Z,1.38
2022-10-22T16:54:28.907Z,1.23
2022-10-22T16:56:56.958Z,1.52
2022-10-22T16:59:25.115Z,1.40
2022-10-22T17:01:54.503Z,1.52
2022-10-22T17:04:27.034Z,1.13
2022-10-22T17:06:54.995Z,1.67
2022-10-22T17:09:24.224Z,1.80
2022-10-22T17:11:52.196Z,1.15
2022-10-22T17:14:20.177Z,1.30
2022-10-22T17:16:53.317Z,1.10
2022-10-22T17:19:21.898Z,1.00
2022-10-22T17:21:53.666Z,1.23
2022-10-22T17:24:21.773Z,1.55
2022-10-22T17:26:50.570Z,1.15
2022-10-22T17:29:20.870Z,1.20
2022-10-22T17:31:50.208Z,1.90
2022-10-22T17:34:18.627Z,1.60
2022-10-22T17:36:46.732Z,1.42
2022-10-22T17:39:18.821Z,1.48
2022-10-22T17:41:46.994Z,1.25
2022-10-22T17:44:16.767Z,1.08
2022-10-22T17:49:19.061Z,1.30
2022-10-22T17:51:48.746Z,1.40
2022-10-22T17:54:18.102Z,1.67
2022-10-22T17:56:46.232Z,1.88
2022-10-22T17:59:16.161Z,1.70
2022-10-22T18:01:45.792Z,1.30
2022-10-22T18:06:43.595Z,1.50
2022-10-22T18:09:18.172Z,1.85
2022-10-22T18:11:48.746Z,1.60
2022-10-22T18:14:18.430Z,1.65
2022-10-22T18:16:46.958Z,1.52
2022-10-22T18:19:17.990Z,1.40
2022-10-22T18:21:46.584Z,2.45
2022-10-22T18:24:15.102Z,2.22
2022-10-22T18:26:43.296Z,2.80
2022-10-22T18:29:15.775Z,3.05
2022-10-22T18:31:43.774Z,2.40
2022-10-22T18:34:12.208Z,2.65
2022-10-22T18:36:41.600Z,3.47
2022-10-22T18:39:09.679Z,2.55
2022-10-22T18:41:37.682Z,2.92
2022-10-22T18:44:07.291Z,2.60
2022-10-22T18:46:39.120Z,2.30
2022-10-22T18:49:08.156Z,2.33
2022-10-22T18:51:36.821Z,2.50
2022-10-22T18:54:18.295Z,2.22
2022-10-22T18:56:50.592Z,1.92
2022-10-22T18:59:21.474Z,1.85
2022-10-22T19:01:52.587Z,2.28
2022-10-22T19:04:20.711Z,2.03
2022-10-22T19:06:48.796Z,2.08
2022-10-22T19:09:17.436Z,2.13
2022-10-22T19:11:46.451Z,2.42
2022-10-22T19:14:19.505Z,2.20
2022-10-22T19:16:47.638Z,2.28
2022-10-22T19:19:19.043Z,2.20
2022-10-22T19:21:47.432Z,2.53
2022-10-22T19:24:21.364Z,2.60
2022-10-22T19:26:50.835Z,2.50
2022-10-22T19:29:20.559Z,2.78
2022-10-22T19:31:52.983Z,2.10
2022-10-22T19:34:22.895Z,2.28
2022-10-22T19:39:21.120Z,2.35
2022-10-22T19:41:49.580Z,2.63
2022-10-22T19:44:19.847Z,2.60
2022-10-22T19:46:47.976Z,3.45
2022-10-22T19:49:19.081Z,2.50
2022-10-22T19:51:51.773Z,2.80
2022-10-22T19:54:20.533Z,2.75
2022-10-22T19:56:49.798Z,2.42
2022-10-22T19:59:20.459Z,2.55
2022-10-22T20:01:48.493Z,2.63
2022-10-22T20:04:18.756Z,2.63
2022-10-22T20:06:47.318Z,2.45
2022-10-22T20:09:17.593Z,2.80
2022-10-22T20:11:46.035Z,2.22
2022-10-22T20:14:14.953Z,2.15
2022-10-22T20:16:43.974Z,2.27
2022-10-22T20:19:15.881Z,2.60
2022-10-22T20:21:44.993Z,2.40
2022-10-22T20:24:14.084Z,2.28
2022-10-22T20:26:46.398Z,2.97
2022-10-22T20:29:15.673Z,2.58
2022-10-22T20:31:43.731Z,2.58
2022-10-22T20:34:11.834Z,2.80
2022-10-22T20:36:40.471Z,2.80
2022-10-22T20:39:12.096Z,2.75
2022-10-22T20:41:40.743Z,2.10
2022-10-22T20:44:14.212Z,2.30
2022-10-22T20:46:42.629Z,2.33
2022-10-22T20:49:14.008Z,2.20
2022-10-22T20:51:42.579Z,1.65
2022-10-22T20:54:11.014Z,2.10
2022-10-22T20:56:42.263Z,1.75
2022-10-22T20:59:12.706Z,1.77
2022-10-22T21:01:42.908Z,2.00
2022-10-22T21:04:11.046Z,2.40
2022-10-22T21:06:40.386Z,2.03
2022-10-22T21:09:10.058Z,2.50
2022-10-22T21:11:41.598Z,2.17
2022-10-22T21:14:12.573Z,2.10
2022-10-22T21:16:42.276Z,2.00
2022-10-22T21:19:11.455Z,1.77
2022-10-22T21:21:39.508Z,1.95
2022-10-22T21:24:07.898Z,2.00
2022-10-22T21:26:38.059Z,1.95
2022-10-22T21:29:06.023Z,1.98
2022-10-22T21:31:35.775Z,1.98
2022-10-22T21:34:04.139Z,1.80
2022-10-22T21:36:32.171Z,1.67
2022-10-22T21:39:00.139Z,1.60
2022-10-22T21:41:27.970Z,1.50
2022-10-22T21:43:55.836Z,1.85
2022-10-22T21:46:27.010Z,1.50
2022-10-22T21:48:57.917Z,1.80
2022-10-22T21:51:26.540Z,1.45
2022-10-22T21:53:54.775Z,1.80
2022-10-22T21:56:25.281Z,1.50
2022-10-22T21:58:53.450Z,1.77
2022-10-22T22:01:21.523Z,1.38
2022-10-22T22:03:51.566Z,1.80
2022-10-22T22:06:22.992Z,1.60
2022-10-22T22:08:54.226Z,1.70
2022-10-22T22:11:24.657Z,1.70
2022-10-22T22:13:53.589Z,1.67
2022-10-22T22:16:27.165Z,1.75
2022-10-22T22:18:57.829Z,2.08
2022-10-22T22:21:28.936Z,2.95
2022-10-22T22:23:58.357Z,2.10
2022-10-22T22:26:29.803Z,2.03
2022-10-22T22:29:01.034Z,2.50
2022-10-22T22:31:31.735Z,2.42
2022-10-22T22:34:00.609Z,2.38
2022-10-22T22:36:34.962Z,2.20
2022-10-22T22:39:05.085Z,1.98
2022-10-22T22:41:33.428Z,2.10
2022-10-22T22:44:01.546Z,2.00
2022-10-22T22:46:29.889Z,2.08
2022-10-22T22:48:58.247Z,1.83
2022-10-22T22:51:26.349Z,1.55
2022-10-22T22:53:55.930Z,1.42
2022-10-22T22:56:26.376Z,1.27
2022-10-22T22:58:54.415Z,1.90
2022-10-22T23:01:24.907Z,1.40
2022-10-22T23:03:55.709Z,1.55
2022-10-22T23:06:25.330Z,1.50
2022-10-22T23:08:57.385Z,1.45
2022-10-22T23:11:28.724Z,1.38
2022-10-22T23:13:59.289Z,1.30
2022-10-22T23:16:28.704Z,1.23
2022-10-22T23:18:57.650Z,1.23
2022-10-22T23:21:28.195Z,1.00
2022-10-22T23:23:59.277Z,1.30
2022-10-22T23:26:29.774Z,1.50
2022-10-22T23:29:01.654Z,1.23
2022-10-22T23:31:31.406Z,1.50
2022-10-22T23:33:59.565Z,1.30
2022-10-22T23:36:28.164Z,1.40
2022-10-22T23:38:57.519Z,1.55
2022-10-22T23:41:25.528Z,1.17
2022-10-22T23:43:53.437Z,1.50
2022-10-22T23:46:21.407Z,1.58
2022-10-22T23:48:49.456Z,1.23
2022-10-22T23:51:18.096Z,1.60
2022-10-22T23:53:46.493Z,2.50
2022-10-22T23:56:17.954Z,2.90
2022-10-22T23:58:45.951Z,3.17
